Time,TemperatureF,DewpointF,PressureIn,WindDirection,WindDirectionDegrees,WindSpeedMPH,WindSpeedGustMPH,Humidity,HourlyPrecipIn,Conditions,Clouds,dailyrainin,SolarRadiationWatts/m^2,SoftwareType,DateUTC
2013-03-29 00:03:00,35.0,25.0,30.30,South,189,0.0,1.0,66,0.00,,,0.00,0,weatherlink.com 1.10,2013-03-29 05:03:00,
2013-03-29 00:18:00,34.9,24.0,30.30,South,190,1.0,2.0,65,0.00,,,0.00,0,weatherlink.com 1.10,2013-03-29 05:18:00,
2013-03-29 00:33:00,35.0,24.0,30.30,South,189,0.0,2.0,64,0.00,,,0.00,0,weatherlink.com 1.10,2013-03-29 05:33:00,
2013-03-29 00:48:00,34.7,24.0,30.30,South,188,0.0,2.0,64,0.00,,,0.00,0,weatherlink.com 1.10,2013-03-29 05:48:00,
2013-03-29 01:03:00,34.4,24.0,30.30,South,188,0.0,2.0,65,0.00,,,0.00,0,weatherlink.com 1.10,2013-03-29 06:03:00,
2013-03-29 01:18:00,34.4,23.0,30.30,SSW,211,1.0,2.0,64,0.00,,,0.00,0,weatherlink.com 1.10,2013-03-29 06:18:00,
2013-03-29 01:33:00,34.5,23.0,30.30,SSW,201,0.0,2.0,63,0.00,,,0.00,0,weatherlink.com 1.10,2013-03-29 06:33:00,
2013-03-29 01:48:00,34.4,23.0,30.30,SSW,194,0.0,2.0,63,0.00,,,0.00,0,weatherlink.com 1.10,2013-03-29 06:48:00,
2013-03-29 02:03:00,34.1,23.0,30.30,SSW,196,0.0,1.0,64,0.00,,,0.00,0,weatherlink.com 1.10,2013-03-29 07:03:00,
2013-03-29 02:18:00,34.0,23.0,30.30,SSW,196,1.0,2.0,64,0.00,,,0.00,0,weatherlink.com 1.10,2013-03-29 07:18:00,
2013-03-29 02:33:00,33.8,23.0,30.30,SSW,196,0.0,2.0,64,0.00,,,0.00,0,weatherlink.com 1.10,2013-03-29 07:33:00,
2013-03-29 02:48:00,33.7,23.0,30.30,SSE,157,0.0,2.0,64,0.00,,,0.00,0,weatherlink.com 1.10,2013-03-29 07:48:00,
2013-03-29 03:03:00,34.0,22.0,30.29,SSE,157,0.0,2.0,63,0.00,,,0.00,0,weatherlink.com 1.10,2013-03-29 08:03:00,
2013-03-29 03:18:00,34.3,22.0,30.29,SW,232,1.0,1.0,62,0.00,,,0.00,0,weatherlink.com 1.10,2013-03-29 08:18:00,
2013-03-29 03:33:00,34.0,22.0,30.29,SSW,204,1.0,2.0,62,0.00,,,0.00,0,weatherlink.com 1.10,2013-03-29 08:33:00,
2013-03-29 03:48:00,34.5,22.0,30.29,SSW,196,1.0,2.0,61,0.00,,,0.00,0,weatherlink.com 1.10,2013-03-29 08:48:00,
2013-03-29 04:03:00,34.6,22.0,30.29,South,187,0.0,2.0,61,0.00,,,0.00,0,weatherlink.com 1.10,2013-03-29 09:03:00,
2013-03-29 04:18:00,34.7,22.0,30.29,SE,146,1.0,2.0,61,0.00,,,0.00,0,weatherlink.com 1.10,2013-03-29 09:18:00,
2013-03-29 04:33:00,34.7,22.0,30.28,SE,146,0.0,2.0,61,0.00,,,0.00,0,weatherlink.com 1.10,2013-03-29 09:33:00,
2013-03-29 04:48:00,34.4,22.0,30.28,South,186,0.0,2.0,61,0.00,,,0.00,0,weatherlink.com 1.10,2013-03-29 09:48:00,
2013-03-29 05:03:00,33.8,22.0,30.28,South,185,1.0,2.0,63,0.00,,,0.00,0,weatherlink.com 1.10,2013-03-29 10:03:00,
2013-03-29 05:18:00,33.8,23.0,30.28,SSW,198,0.0,2.0,64,0.00,,,0.00,0,weatherlink.com 1.10,2013-03-29 10:18:00,
2013-03-29 05:33:00,33.7,23.0,30.29,South,187,0.0,2.0,64,0.00,,,0.00,0,weatherlink.com 1.10,2013-03-29 10:33:00,
2013-03-29 05:48:00,33.7,23.0,30.29,SSW,213,0.0,2.0,65,0.00,,,0.00,0,weatherlink.com 1.10,2013-03-29 10:48:00,
2013-03-29 06:04:00,34.0,23.0,30.29,West,275,0.0,2.0,64,0.00,,,0.00,0,weatherlink.com 1.10,2013-03-29 11:04:00,
2013-03-29 06:19:00,33.6,23.0,30.29,WNW,303,1.0,2.0,65,0.00,,,0.00,0,weatherlink.com 1.10,2013-03-29 11:19:00,
2013-03-29 06:34:00,33.3,23.0,30.29,WNW,301,0.0,1.0,66,0.00,,,0.00,0,weatherlink.com 1.10,2013-03-29 11:34:00,
2013-03-29 06:49:00,33.0,23.0,30.30,WNW,301,0.0,2.0,66,0.00,,,0.00,9,weatherlink.com 1.10,2013-03-29 11:49:00,
2013-03-29 07:04:00,33.2,23.0,30.30,West,271,0.0,2.0,66,0.00,,,0.00,21,weatherlink.com 1.10,2013-03-29 12:04:00,
2013-03-29 07:19:00,33.5,23.0,30.30,SW,225,2.0,3.0,66,0.00,,,0.00,33,weatherlink.com 1.10,2013-03-29 12:19:00,
2013-03-29 07:34:00,34.0,24.0,30.30,SSW,192,0.0,1.0,66,0.00,,,0.00,42,weatherlink.com 1.10,2013-03-29 12:34:00,
2013-03-29 07:49:00,34.8,24.0,30.30,SSE,155,1.0,3.0,65,0.00,,,0.00,51,weatherlink.com 1.10,2013-03-29 12:49:00,
2013-03-29 08:04:00,35.9,24.0,30.30,SSE,158,1.0,3.0,63,0.00,,,0.00,56,weatherlink.com 1.10,2013-03-29 13:04:00,
2013-03-29 08:19:00,37.2,25.0,30.30,SE,134,1.0,2.0,61,0.00,,,0.00,255,weatherlink.com 1.10,2013-03-29 13:19:00,
2013-03-29 08:34:00,38.9,25.0,30.30,SSE,151,0.0,3.0,59,0.00,,,0.00,306,weatherlink.com 1.10,2013-03-29 13:34:00,
2013-03-29 08:50:00,40.0,26.0,30.30,ESE,115,0.0,3.0,57,0.00,,,0.00,244,weatherlink.com 1.10,2013-03-29 13:50:00,
2013-03-29 09:04:00,42.2,26.0,30.30,SSE,165,1.0,3.0,52,0.00,,,0.00,406,weatherlink.com 1.10,2013-03-29 14:04:00,
2013-03-29 09:19:00,43.3,25.0,30.30,South,173,0.0,5.0,49,0.00,,,0.00,454,weatherlink.com 1.10,2013-03-29 14:19:00,
2013-03-29 09:34:00,44.9,24.0,30.30,WNW,296,0.0,4.0,44,0.00,,,0.00,494,weatherlink.com 1.10,2013-03-29 14:34:00,
2013-03-29 09:49:00,46.0,23.0,30.30,WNW,300,3.0,6.0,41,0.00,,,0.00,540,weatherlink.com 1.10,2013-03-29 14:49:00,
2013-03-29 10:04:00,46.2,22.0,30.30,WNW,301,4.0,6.0,39,0.00,,,0.00,578,weatherlink.com 1.10,2013-03-29 15:04:00,
2013-03-29 10:19:00,46.9,23.0,30.31,SSW,207,0.0,6.0,39,0.00,,,0.00,612,weatherlink.com 1.10,2013-03-29 15:19:00,
2013-03-29 10:37:00,47.3,23.0,30.31,NNW,338,2.0,6.0,38,0.00,,,0.00,643,weatherlink.com 1.10,2013-03-29 15:37:00,
2013-03-29 10:49:00,48.1,22.0,30.31,NW,322,3.0,6.0,36,0.00,,,0.00,671,weatherlink.com 1.10,2013-03-29 15:49:00,
2013-03-29 11:05:00,47.9,23.0,30.31,North,355,2.0,5.0,38,0.00,,,0.00,701,weatherlink.com 1.10,2013-03-29 16:05:00,
2013-03-29 11:20:00,43.2,30.0,30.31,NNE,26,2.0,5.0,59,0.00,,,0.00,724,weatherlink.com 1.10,2013-03-29 16:20:00,
2013-03-29 11:35:00,43.2,27.0,30.31,NE,46,2.0,4.0,54,0.00,,,0.00,744,weatherlink.com 1.10,2013-03-29 16:35:00,
2013-03-29 11:50:00,42.4,28.0,30.31,NNE,21,0.0,5.0,57,0.00,,,0.00,761,weatherlink.com 1.10,2013-03-29 16:50:00,
2013-03-29 12:05:00,41.0,29.0,30.31,ENE,61,1.0,6.0,62,0.00,,,0.00,772,weatherlink.com 1.10,2013-03-29 17:05:00,
2013-03-29 12:20:00,40.6,29.0,30.31,NNE,28,3.0,5.0,63,0.00,,,0.00,788,weatherlink.com 1.10,2013-03-29 17:20:00,
2013-03-29 12:35:00,40.6,29.0,30.30,ENE,69,0.0,6.0,64,0.00,,,0.00,789,weatherlink.com 1.10,2013-03-29 17:35:00,
2013-03-29 12:50:00,40.3,30.0,30.30,NNE,13,3.0,4.0,68,0.00,,,0.00,793,weatherlink.com 1.10,2013-03-29 17:50:00,
2013-03-29 13:05:00,40.3,30.0,30.30,NE,34,2.0,5.0,67,0.00,,,0.00,793,weatherlink.com 1.10,2013-03-29 18:05:00,
2013-03-29 13:20:00,40.4,31.0,30.30,NNE,23,3.0,7.0,70,0.00,,,0.00,786,weatherlink.com 1.10,2013-03-29 18:20:00,
2013-03-29 13:35:00,39.7,31.0,30.29,NE,47,1.0,6.0,70,0.00,,,0.00,777,weatherlink.com 1.10,2013-03-29 18:35:00,
2013-03-29 13:50:00,39.9,32.0,30.29,NE,36,0.0,6.0,72,0.00,,,0.00,768,weatherlink.com 1.10,2013-03-29 18:50:00,
2013-03-29 14:05:00,40.6,32.0,30.28,NE,49,5.0,5.0,71,0.00,,,0.00,756,weatherlink.com 1.10,2013-03-29 19:05:00,
2013-03-29 14:20:00,40.4,31.0,30.28,NE,51,1.0,5.0,69,0.00,,,0.00,737,weatherlink.com 1.10,2013-03-29 19:20:00,
2013-03-29 14:35:00,41.0,30.0,30.28,NE,34,2.0,7.0,64,0.00,,,0.00,717,weatherlink.com 1.10,2013-03-29 19:35:00,
2013-03-29 14:50:00,40.9,31.0,30.27,ENE,57,3.0,6.0,67,0.00,,,0.00,689,weatherlink.com 1.10,2013-03-29 19:50:00,
2013-03-29 15:05:00,40.8,30.0,30.27,NNE,19,1.0,6.0,66,0.00,,,0.00,661,weatherlink.com 1.10,2013-03-29 20:05:00,
2013-03-29 15:20:00,40.8,31.0,30.27,NE,38,2.0,6.0,69,0.00,,,0.00,629,weatherlink.com 1.10,2013-03-29 20:20:00,
2013-03-29 15:35:00,40.1,30.0,30.27,NNE,14,0.0,7.0,68,0.00,,,0.00,596,weatherlink.com 1.10,2013-03-29 20:35:00,
2013-03-29 15:50:00,39.7,30.0,30.26,NE,42,0.0,5.0,68,0.00,,,0.00,56,weatherlink.com 1.10,2013-03-29 20:50:00,
2013-03-29 16:05:00,39.7,29.0,30.26,NE,36,0.0,5.0,67,0.00,,,0.00,54,weatherlink.com 1.10,2013-03-29 21:05:00,
2013-03-29 16:20:00,40.2,28.0,30.26,NE,42,0.0,4.0,61,0.00,,,0.00,51,weatherlink.com 1.10,2013-03-29 21:20:00,
2013-03-29 16:35:00,39.9,27.0,30.26,NNE,15,2.0,6.0,61,0.00,,,0.00,49,weatherlink.com 1.10,2013-03-29 21:35:00,
2013-03-29 16:50:00,40.0,27.0,30.26,NE,52,0.0,4.0,60,0.00,,,0.00,47,weatherlink.com 1.10,2013-03-29 21:50:00,
2013-03-29 17:05:00,39.7,26.0,30.25,NE,40,1.0,4.0,58,0.00,,,0.00,46,weatherlink.com 1.10,2013-03-29 22:05:00,
2013-03-29 17:20:00,39.6,27.0,30.25,ENE,61,1.0,5.0,60,0.00,,,0.00,42,weatherlink.com 1.10,2013-03-29 22:20:00,
2013-03-29 17:35:00,39.4,26.0,30.25,NE,52,0.0,4.0,59,0.00,,,0.00,40,weatherlink.com 1.10,2013-03-29 22:35:00,
2013-03-29 17:50:00,39.2,26.0,30.25,NE,50,0.0,4.0,59,0.00,,,0.00,37,weatherlink.com 1.10,2013-03-29 22:50:00,
2013-03-29 18:05:00,38.6,26.0,30.25,ENE,66,1.0,5.0,60,0.00,,,0.00,33,weatherlink.com 1.10,2013-03-29 23:05:00,
2013-03-29 18:20:00,38.2,26.0,30.26,NNE,30,0.0,3.0,63,0.00,,,0.00,28,weatherlink.com 1.10,2013-03-29 23:20:00,
2013-03-29 18:35:00,37.7,27.0,30.26,ENE,64,0.0,1.0,66,0.00,,,0.00,23,weatherlink.com 1.10,2013-03-29 23:35:00,
2013-03-29 18:50:00,37.5,27.0,30.25,SSE,165,0.0,2.0,66,0.00,,,0.00,16,weatherlink.com 1.10,2013-03-29 23:50:00,
2013-03-29 19:05:00,37.2,27.0,30.25,SSE,165,0.0,1.0,66,0.00,,,0.00,7,weatherlink.com 1.10,2013-03-30 00:05:00,
2013-03-29 19:20:00,37.1,27.0,30.26,SSE,165,0.0,0.0,66,0.00,,,0.00,0,weatherlink.com 1.10,2013-03-30 00:20:00,
2013-03-29 19:35:00,36.8,26.0,30.25,SSE,165,0.0,0.0,64,0.00,,,0.00,0,weatherlink.com 1.10,2013-03-30 00:35:00,
2013-03-29 19:50:00,37.0,26.0,30.26,SSE,165,0.0,0.0,64,0.00,,,0.00,0,weatherlink.com 1.10,2013-03-30 00:50:00,
2013-03-29 20:05:00,36.9,26.0,30.26,SSE,165,0.0,0.0,65,0.00,,,0.00,0,weatherlink.com 1.10,2013-03-30 01:05:00,
2013-03-29 20:20:00,37.0,26.0,30.26,SSE,165,0.0,0.0,64,0.00,,,0.00,0,weatherlink.com 1.10,2013-03-30 01:20:00,
2013-03-29 21:01:00,36.1,25.0,30.26,SSE,165,0.0,0.0,64,0.00,,,0.00,0,weatherlink.com 1.10,2013-03-30 02:01:00,
2013-03-29 21:20:00,36.3,25.0,30.26,SSE,165,0.0,0.0,63,0.00,,,0.00,0,weatherlink.com 1.10,2013-03-30 02:20:00,
2013-03-29 21:35:00,35.7,25.0,30.26,SSE,165,0.0,2.0,66,0.00,,,0.00,0,weatherlink.com 1.10,2013-03-30 02:35:00,
2013-03-29 21:50:00,35.3,25.0,30.26,SSE,165,0.0,2.0,67,0.00,,,0.00,0,weatherlink.com 1.10,2013-03-30 02:50:00,
2013-03-29 22:30:00,35.7,25.0,30.25,SSE,165,1.0,2.0,65,0.00,,,0.00,0,weatherlink.com 1.10,2013-03-30 03:30:00,
2013-03-29 22:35:00,35.8,25.0,30.25,South,175,1.0,2.0,65,0.00,,,0.00,0,weatherlink.com 1.10,2013-03-30 03:35:00,
2013-03-29 22:50:00,35.5,25.0,30.25,South,175,2.0,2.0,65,0.00,,,0.00,0,weatherlink.com 1.10,2013-03-30 03:50:00,
2013-03-29 23:05:00,35.9,24.0,30.25,South,187,1.0,3.0,63,0.00,,,0.00,0,weatherlink.com 1.10,2013-03-30 04:05:00,
2013-03-29 23:20:00,35.6,24.0,30.24,SSW,196,2.0,3.0,63,0.00,,,0.00,0,weatherlink.com 1.10,2013-03-30 04:20:00,
2013-03-29 23:35:00,35.5,24.0,30.24,SSW,192,2.0,3.0,64,0.00,,,0.00,0,weatherlink.com 1.10,2013-03-30 04:35:00,
2013-03-29 23:50:00,35.3,25.0,30.24,South,188,3.0,5.0,65,0.00,,,0.00,0,weatherlink.com 1.10,2013-03-30 04:50:00,